sensor_id;sensor_type;location;lat;lon;timestamp;P1;durP1;ratioP1;P2;durP2;ratioP2
14116;SDS011;7137;51.436;6.544;2023-04-25T00:00:13;10.43;;;5.20;;
14116;SDS011;7137;51.436;6.544;2023-04-25T00:03:16;9.30;;;4.80;;
14116;SDS011;7137;51.436;6.544;2023-04-25T00:06:18;13.63;;;5.37;;
14116;SDS011;7137;51.436;6.544;2023-04-25T00:09:20;9.60;;;4.63;;
14116;SDS011;7137;51.436;6.544;2023-04-25T00:12:21;12.70;;;5.17;;
14116;SDS011;7137;51.436;6.544;2023-04-25T00:15:23;10.10;;;5.13;;
14116;SDS011;7137;51.436;6.544;2023-04-25T00:18:26;10.93;;;5.33;;
14116;SDS011;7137;51.436;6.544;2023-04-25T00:21:29;13.50;;;5.87;;
14116;SDS011;7137;51.436;6.544;2023-04-25T00:24:31;13.57;;;5.33;;
14116;SDS011;7137;51.436;6.544;2023-04-25T00:27:33;10.47;;;5.07;;
14116;SDS011;7137;51.436;6.544;2023-04-25T00:30:34;12.07;;;5.60;;
14116;SDS011;7137;51.436;6.544;2023-04-25T00:33:37;11.67;;;5.43;;
14116;SDS011;7137;51.436;6.544;2023-04-25T00:36:39;9.87;;;5.40;;
14116;SDS011;7137;51.436;6.544;2023-04-25T00:39:41;11.83;;;5.47;;
14116;SDS011;7137;51.436;6.544;2023-04-25T00:42:42;10.97;;;5.43;;
14116;SDS011;7137;51.436;6.544;2023-04-25T00:45:45;12.40;;;4.93;;
14116;SDS011;7137;51.436;6.544;2023-04-25T00:48:50;12.30;;;5.00;;
14116;SDS011;7137;51.436;6.544;2023-04-25T00:51:51;11.70;;;5.40;;
14116;SDS011;7137;51.436;6.544;2023-04-25T00:54:59;12.80;;;5.57;;
14116;SDS011;7137;51.436;6.544;2023-04-25T00:58:01;12.63;;;5.50;;
14116;SDS011;7137;51.436;6.544;2023-04-25T01:01:03;12.20;;;5.33;;
14116;SDS011;7137;51.436;6.544;2023-04-25T01:04:08;11.70;;;5.37;;
14116;SDS011;7137;51.436;6.544;2023-04-25T01:07:09;13.30;;;5.90;;
14116;SDS011;7137;51.436;6.544;2023-04-25T01:10:11;11.37;;;5.13;;
14116;SDS011;7137;51.436;6.544;2023-04-25T01:13:12;14.83;;;5.67;;
14116;SDS011;7137;51.436;6.544;2023-04-25T01:16:14;12.03;;;5.50;;
14116;SDS011;7137;51.436;6.544;2023-04-25T01:19:18;13.73;;;5.60;;
14116;SDS011;7137;51.436;6.544;2023-04-25T01:22:21;11.53;;;5.37;;
14116;SDS011;7137;51.436;6.544;2023-04-25T01:25:24;12.20;;;5.60;;
14116;SDS011;7137;51.436;6.544;2023-04-25T01:28:26;12.27;;;5.80;;
14116;SDS011;7137;51.436;6.544;2023-04-25T01:31:28;13.60;;;5.57;;
14116;SDS011;7137;51.436;6.544;2023-04-25T01:34:31;10.53;;;5.17;;
14116;SDS011;7137;51.436;6.544;2023-04-25T01:37:34;13.00;;;5.87;;
14116;SDS011;7137;51.436;6.544;2023-04-25T01:40:37;13.53;;;5.30;;
14116;SDS011;7137;51.436;6.544;2023-04-25T01:43:41;11.47;;;5.30;;
14116;SDS011;7137;51.436;6.544;2023-04-25T01:46:43;13.20;;;5.10;;
14116;SDS011;7137;51.436;6.544;2023-04-25T01:49:44;11.03;;;5.70;;
14116;SDS011;7137;51.436;6.544;2023-04-25T01:52:47;12.23;;;5.00;;
14116;SDS011;7137;51.436;6.544;2023-04-25T01:55:49;11.13;;;4.93;;
14116;SDS011;7137;51.436;6.544;2023-04-25T01:58:50;9.17;;;4.53;;
14116;SDS011;7137;51.436;6.544;2023-04-25T02:01:52;11.03;;;5.13;;
14116;SDS011;7137;51.436;6.544;2023-04-25T02:04:54;10.27;;;4.63;;
14116;SDS011;7137;51.436;6.544;2023-04-25T02:07:57;11.43;;;4.90;;
14116;SDS011;7137;51.436;6.544;2023-04-25T02:10:59;10.80;;;4.80;;
14116;SDS011;7137;51.436;6.544;2023-04-25T02:14:00;12.33;;;5.00;;
14116;SDS011;7137;51.436;6.544;2023-04-25T02:17:02;9.93;;;4.90;;
14116;SDS011;7137;51.436;6.544;2023-04-25T02:20:04;9.93;;;4.63;;
14116;SDS011;7137;51.436;6.544;2023-04-25T02:23:07;13.17;;;4.80;;
14116;SDS011;7137;51.436;6.544;2023-04-25T02:26:09;11.33;;;5.33;;
14116;SDS011;7137;51.436;6.544;2023-04-25T02:29:13;13.33;;;5.03;;
14116;SDS011;7137;51.436;6.544;2023-04-25T02:32:15;12.00;;;4.83;;
14116;SDS011;7137;51.436;6.544;2023-04-25T02:35:17;11.27;;;5.27;;
14116;SDS011;7137;51.436;6.544;2023-04-25T02:38:20;12.57;;;5.37;;
14116;SDS011;7137;51.436;6.544;2023-04-25T02:41:21;12.33;;;5.20;;
14116;SDS011;7137;51.436;6.544;2023-04-25T02:44:23;10.80;;;4.63;;
14116;SDS011;7137;51.436;6.544;2023-04-25T02:47:24;15.43;;;5.10;;
14116;SDS011;7137;51.436;6.544;2023-04-25T02:50:26;12.00;;;5.33;;
14116;SDS011;7137;51.436;6.544;2023-04-25T02:53:29;16.80;;;5.13;;
14116;SDS011;7137;51.436;6.544;2023-04-25T02:56:31;13.73;;;5.23;;
14116;SDS011;7137;51.436;6.544;2023-04-25T02:59:32;12.27;;;5.37;;
14116;SDS011;7137;51.436;6.544;2023-04-25T03:02:34;14.90;;;5.70;;
14116;SDS011;7137;51.436;6.544;2023-04-25T03:05:36;14.40;;;4.97;;
14116;SDS011;7137;51.436;6.544;2023-04-25T03:08:38;11.27;;;5.10;;
14116;SDS011;7137;51.436;6.544;2023-04-25T03:11:40;10.70;;;4.83;;
14116;SDS011;7137;51.436;6.544;2023-04-25T03:14:42;10.60;;;4.83;;
14116;SDS011;7137;51.436;6.544;2023-04-25T03:17:43;13.43;;;4.80;;
14116;SDS011;7137;51.436;6.544;2023-04-25T03:20:45;11.60;;;5.00;;
14116;SDS011;7137;51.436;6.544;2023-04-25T03:23:48;15.73;;;5.17;;
14116;SDS011;7137;51.436;6.544;2023-04-25T03:26:50;16.23;;;5.27;;
14116;SDS011;7137;51.436;6.544;2023-04-25T03:29:52;13.30;;;5.23;;
14116;SDS011;7137;51.436;6.544;2023-04-25T03:32:53;16.13;;;5.50;;
14116;SDS011;7137;51.436;6.544;2023-04-25T03:35:55;17.40;;;5.70;;
14116;SDS011;7137;51.436;6.544;2023-04-25T03:38:58;16.47;;;5.60;;
14116;SDS011;7137;51.436;6.544;2023-04-25T03:41:59;14.27;;;5.57;;
14116;SDS011;7137;51.436;6.544;2023-04-25T03:45:01;11.60;;;5.33;;
14116;SDS011;7137;51.436;6.544;2023-04-25T03:48:03;14.00;;;5.50;;
14116;SDS011;7137;51.436;6.544;2023-04-25T03:51:05;12.03;;;5.00;;
14116;SDS011;7137;51.436;6.544;2023-04-25T03:54:08;16.63;;;6.03;;
14116;SDS011;7137;51.436;6.544;2023-04-25T03:57:09;13.83;;;5.70;;
14116;SDS011;7137;51.436;6.544;2023-04-25T04:00:11;16.80;;;5.47;;
14116;SDS011;7137;51.436;6.544;2023-04-25T04:03:14;16.53;;;5.83;;
14116;SDS011;7137;51.436;6.544;2023-04-25T04:06:16;12.87;;;5.73;;
14116;SDS011;7137;51.436;6.544;2023-04-25T04:09:19;13.87;;;5.23;;
14116;SDS011;7137;51.436;6.544;2023-04-25T04:12:21;18.03;;;5.63;;
14116;SDS011;7137;51.436;6.544;2023-04-25T04:15:22;17.13;;;5.83;;
14116;SDS011;7137;51.436;6.544;2023-04-25T04:18:24;16.20;;;6.23;;
14116;SDS011;7137;51.436;6.544;2023-04-25T04:21:25;14.60;;;6.37;;
14116;SDS011;7137;51.436;6.544;2023-04-25T04:24:29;14.53;;;5.70;;
14116;SDS011;7137;51.436;6.544;2023-04-25T04:27:30;13.77;;;5.67;;
14116;SDS011;7137;51.436;6.544;2023-04-25T04:30:32;15.33;;;5.63;;
14116;SDS011;7137;51.436;6.544;2023-04-25T04:33:36;17.17;;;6.40;;
14116;SDS011;7137;51.436;6.544;2023-04-25T04:36:38;14.37;;;5.57;;
14116;SDS011;7137;51.436;6.544;2023-04-25T04:39:41;15.90;;;5.87;;
14116;SDS011;7137;51.436;6.544;2023-04-25T04:42:42;15.60;;;6.00;;
14116;SDS011;7137;51.436;6.544;2023-04-25T04:45:45;11.80;;;5.50;;
14116;SDS011;7137;51.436;6.544;2023-04-25T04:48:47;14.27;;;6.27;;
14116;SDS011;7137;51.436;6.544;2023-04-25T04:51:49;16.60;;;5.97;;
14116;SDS011;7137;51.436;6.544;2023-04-25T04:54:52;14.77;;;6.13;;
14116;SDS011;7137;51.436;6.544;2023-04-25T04:57:53;14.80;;;5.43;;
14116;SDS011;7137;51.436;6.544;2023-04-25T05:00:55;15.13;;;6.00;;
14116;SDS011;7137;51.436;6.544;2023-04-25T05:03:57;15.80;;;5.63;;
14116;SDS011;7137;51.436;6.544;2023-04-25T05:07:00;14.30;;;5.23;;
14116;SDS011;7137;51.436;6.544;2023-04-25T05:10:03;15.40;;;5.43;;
14116;SDS011;7137;51.436;6.544;2023-04-25T05:13:05;13.50;;;5.50;;
14116;SDS011;7137;51.436;6.544;2023-04-25T05:16:07;13.03;;;5.13;;
14116;SDS011;7137;51.436;6.544;2023-04-25T05:19:08;15.27;;;5.10;;
14116;SDS011;7137;51.436;6.544;2023-04-25T05:22:10;11.50;;;5.00;;
14116;SDS011;7137;51.436;6.544;2023-04-25T05:25:13;17.90;;;5.40;;
14116;SDS011;7137;51.436;6.544;2023-04-25T05:28:14;16.80;;;5.43;;
14116;SDS011;7137;51.436;6.544;2023-04-25T05:31:16;15.87;;;8.00;;
14116;SDS011;7137;51.436;6.544;2023-04-25T05:34:18;11.10;;;4.47;;
14116;SDS011;7137;51.436;6.544;2023-04-25T05:37:20;14.63;;;4.97;;
14116;SDS011;7137;51.436;6.544;2023-04-25T05:40:23;13.30;;;5.00;;
14116;SDS011;7137;51.436;6.544;2023-04-25T05:43:24;11.10;;;5.23;;
14116;SDS011;7137;51.436;6.544;2023-04-25T05:46:26;14.27;;;4.87;;
14116;SDS011;7137;51.436;6.544;2023-04-25T05:49:27;13.80;;;5.17;;
14116;SDS011;7137;51.436;6.544;2023-04-25T05:52:29;13.33;;;4.67;;
14116;SDS011;7137;51.436;6.544;2023-04-25T05:55:32;16.07;;;5.20;;
14116;SDS011;7137;51.436;6.544;2023-04-25T05:58:33;13.50;;;4.17;;
14116;SDS011;7137;51.436;6.544;2023-04-25T06:01:35;16.20;;;4.73;;
14116;SDS011;7137;51.436;6.544;2023-04-25T06:04:36;12.17;;;4.37;;
14116;SDS011;7137;51.436;6.544;2023-04-25T06:07:38;13.43;;;5.10;;
14116;SDS011;7137;51.436;6.544;2023-04-25T06:10:41;11.63;;;4.37;;
14116;SDS011;7137;51.436;6.544;2023-04-25T06:13:42;13.30;;;4.63;;
14116;SDS011;7137;51.436;6.544;2023-04-25T06:16:44;15.00;;;5.13;;
14116;SDS011;7137;51.436;6.544;2023-04-25T06:19:45;11.20;;;4.17;;
14116;SDS011;7137;51.436;6.544;2023-04-25T06:22:47;10.67;;;3.70;;
14116;SDS011;7137;51.436;6.544;2023-04-25T06:25:50;12.67;;;4.20;;
14116;SDS011;7137;51.436;6.544;2023-04-25T06:28:51;10.83;;;3.60;;
14116;SDS011;7137;51.436;6.544;2023-04-25T06:31:53;10.53;;;3.50;;
14116;SDS011;7137;51.436;6.544;2023-04-25T06:34:54;11.23;;;3.40;;
14116;SDS011;7137;51.436;6.544;2023-04-25T06:37:56;11.17;;;3.10;;
14116;SDS011;7137;51.436;6.544;2023-04-25T06:40:59;10.77;;;3.37;;
14116;SDS011;7137;51.436;6.544;2023-04-25T06:44:00;10.13;;;3.07;;
14116;SDS011;7137;51.436;6.544;2023-04-25T06:47:02;9.00;;;3.23;;
14116;SDS011;7137;51.436;6.544;2023-04-25T06:50:04;12.00;;;3.37;;
14116;SDS011;7137;51.436;6.544;2023-04-25T06:53:07;8.67;;;3.00;;
14116;SDS011;7137;51.436;6.544;2023-04-25T06:56:10;10.20;;;3.20;;
14116;SDS011;7137;51.436;6.544;2023-04-25T06:59:11;9.50;;;2.90;;
14116;SDS011;7137;51.436;6.544;2023-04-25T07:02:13;9.50;;;3.27;;
14116;SDS011;7137;51.436;6.544;2023-04-25T07:05:14;10.03;;;3.20;;
14116;SDS011;7137;51.436;6.544;2023-04-25T07:08:16;10.43;;;3.03;;
14116;SDS011;7137;51.436;6.544;2023-04-25T07:11:19;8.93;;;2.93;;
14116;SDS011;7137;51.436;6.544;2023-04-25T07:14:20;11.97;;;3.40;;
14116;SDS011;7137;51.436;6.544;2023-04-25T07:17:22;8.30;;;3.00;;
14116;SDS011;7137;51.436;6.544;2023-04-25T07:20:24;9.80;;;2.90;;
14116;SDS011;7137;51.436;6.544;2023-04-25T07:23:27;10.83;;;2.70;;
14116;SDS011;7137;51.436;6.544;2023-04-25T07:26:31;8.37;;;2.83;;
14116;SDS011;7137;51.436;6.544;2023-04-25T07:29:33;6.87;;;2.90;;
14116;SDS011;7137;51.436;6.544;2023-04-25T07:32:37;8.60;;;2.97;;
14116;SDS011;7137;51.436;6.544;2023-04-25T07:35:38;10.03;;;2.83;;
14116;SDS011;7137;51.436;6.544;2023-04-25T07:38:40;6.73;;;2.47;;
14116;SDS011;7137;51.436;6.544;2023-04-25T07:41:43;8.60;;;2.77;;
14116;SDS011;7137;51.436;6.544;2023-04-25T07:44:44;9.37;;;3.00;;
14116;SDS011;7137;51.436;6.544;2023-04-25T07:47:47;8.03;;;2.40;;
14116;SDS011;7137;51.436;6.544;2023-04-25T07:50:48;7.57;;;2.80;;
14116;SDS011;7137;51.436;6.544;2023-04-25T07:53:50;9.87;;;2.93;;
14116;SDS011;7137;51.436;6.544;2023-04-25T07:56:53;9.87;;;2.27;;
14116;SDS011;7137;51.436;6.544;2023-04-25T07:59:54;8.80;;;2.60;;
14116;SDS011;7137;51.436;6.544;2023-04-25T08:02:56;7.73;;;2.27;;
14116;SDS011;7137;51.436;6.544;2023-04-25T08:05:57;6.23;;;1.80;;
14116;SDS011;7137;51.436;6.544;2023-04-25T08:08:59;7.90;;;2.40;;
14116;SDS011;7137;51.436;6.544;2023-04-25T08:12:02;7.97;;;2.40;;
14116;SDS011;7137;51.436;6.544;2023-04-25T08:15:05;6.77;;;2.10;;
14116;SDS011;7137;51.436;6.544;2023-04-25T08:18:07;7.03;;;1.87;;
14116;SDS011;7137;51.436;6.544;2023-04-25T08:21:09;8.13;;;2.40;;
14116;SDS011;7137;51.436;6.544;2023-04-25T08:24:11;7.33;;;2.10;;
14116;SDS011;7137;51.436;6.544;2023-04-25T08:27:14;7.13;;;2.10;;
14116;SDS011;7137;51.436;6.544;2023-04-25T08:30:15;9.23;;;2.47;;
14116;SDS011;7137;51.436;6.544;2023-04-25T08:33:17;7.43;;;2.00;;
14116;SDS011;7137;51.436;6.544;2023-04-25T08:36:19;5.60;;;2.00;;
14116;SDS011;7137;51.436;6.544;2023-04-25T08:39:20;6.80;;;1.83;;
14116;SDS011;7137;51.436;6.544;2023-04-25T08:42:23;6.53;;;2.30;;
14116;SDS011;7137;51.436;6.544;2023-04-25T08:45:27;7.07;;;1.70;;
14116;SDS011;7137;51.436;6.544;2023-04-25T08:48:32;8.60;;;2.00;;
14116;SDS011;7137;51.436;6.544;2023-04-25T08:51:35;4.83;;;1.30;;
14116;SDS011;7137;51.436;6.544;2023-04-25T08:54:45;6.70;;;1.63;;
14116;SDS011;7137;51.436;6.544;2023-04-25T08:57:50;8.20;;;1.60;;
14116;SDS011;7137;51.436;6.544;2023-04-25T09:00:52;5.13;;;1.33;;
14116;SDS011;7137;51.436;6.544;2023-04-25T09:03:54;5.20;;;1.57;;
14116;SDS011;7137;51.436;6.544;2023-04-25T09:06:55;7.57;;;1.90;;
14116;SDS011;7137;51.436;6.544;2023-04-25T09:09:58;7.30;;;1.73;;
14116;SDS011;7137;51.436;6.544;2023-04-25T09:13:04;6.60;;;1.40;;
14116;SDS011;7137;51.436;6.544;2023-04-25T09:16:06;4.97;;;1.40;;
14116;SDS011;7137;51.436;6.544;2023-04-25T09:19:08;6.63;;;1.60;;
14116;SDS011;7137;51.436;6.544;2023-04-25T09:22:22;6.67;;;1.90;;
14116;SDS011;7137;51.436;6.544;2023-04-25T09:25:24;6.40;;;1.50;;
14116;SDS011;7137;51.436;6.544;2023-04-25T09:28:27;7.27;;;1.80;;
14116;SDS011;7137;51.436;6.544;2023-04-25T09:31:29;7.27;;;1.73;;
14116;SDS011;7137;51.436;6.544;2023-04-25T09:34:35;6.10;;;1.50;;
14116;SDS011;7137;51.436;6.544;2023-04-25T09:37:40;7.07;;;2.03;;
14116;SDS011;7137;51.436;6.544;2023-04-25T09:40:42;7.60;;;1.83;;
14116;SDS011;7137;51.436;6.544;2023-04-25T09:43:46;6.97;;;1.70;;
14116;SDS011;7137;51.436;6.544;2023-04-25T09:46:50;7.00;;;1.60;;
14116;SDS011;7137;51.436;6.544;2023-04-25T09:49:53;6.93;;;1.50;;
14116;SDS011;7137;51.436;6.544;2023-04-25T09:53:02;5.07;;;1.50;;
14116;SDS011;7137;51.436;6.544;2023-04-25T09:56:06;4.97;;;1.50;;
14116;SDS011;7137;51.436;6.544;2023-04-25T09:59:10;5.83;;;1.83;;
14116;SDS011;7137;51.436;6.544;2023-04-25T10:02:14;4.27;;;1.27;;
14116;SDS011;7137;51.436;6.544;2023-04-25T10:05:19;5.07;;;1.30;;
14116;SDS011;7137;51.436;6.544;2023-04-25T10:08:21;6.63;;;1.60;;
14116;SDS011;7137;51.436;6.544;2023-04-25T10:11:26;7.67;;;2.07;;
14116;SDS011;7137;51.436;6.544;2023-04-25T10:14:30;6.87;;;1.30;;
14116;SDS011;7137;51.436;6.544;2023-04-25T10:17:32;6.80;;;1.90;;
14116;SDS011;7137;51.436;6.544;2023-04-25T10:20:35;5.80;;;1.57;;
14116;SDS011;7137;51.436;6.544;2023-04-25T10:23:36;7.63;;;1.70;;
14116;SDS011;7137;51.436;6.544;2023-04-25T10:26:38;8.50;;;2.00;;
14116;SDS011;7137;51.436;6.544;2023-04-25T10:29:42;8.90;;;2.17;;
14116;SDS011;7137;51.436;6.544;2023-04-25T10:32:44;6.87;;;1.60;;
14116;SDS011;7137;51.436;6.544;2023-04-25T10:35:47;6.87;;;1.70;;
14116;SDS011;7137;51.436;6.544;2023-04-25T10:38:49;7.20;;;1.83;;
14116;SDS011;7137;51.436;6.544;2023-04-25T10:41:52;5.80;;;1.87;;
14116;SDS011;7137;51.436;6.544;2023-04-25T10:45:02;6.77;;;1.73;;
14116;SDS011;7137;51.436;6.544;2023-04-25T10:48:11;7.97;;;1.80;;
14116;SDS011;7137;51.436;6.544;2023-04-25T10:51:26;7.57;;;1.60;;
14116;SDS011;7137;51.436;6.544;2023-04-25T10:54:30;6.93;;;1.90;;
14116;SDS011;7137;51.436;6.544;2023-04-25T10:57:32;8.37;;;1.90;;
14116;SDS011;7137;51.436;6.544;2023-04-25T11:00:39;5.40;;;1.87;;
14116;SDS011;7137;51.436;6.544;2023-04-25T11:03:41;7.40;;;2.03;;
14116;SDS011;7137;51.436;6.544;2023-04-25T11:06:46;8.93;;;2.10;;
14116;SDS011;7137;51.436;6.544;2023-04-25T11:09:59;8.37;;;2.03;;
14116;SDS011;7137;51.436;6.544;2023-04-25T11:13:02;5.40;;;1.90;;
14116;SDS011;7137;51.436;6.544;2023-04-25T11:16:08;5.80;;;1.63;;
14116;SDS011;7137;51.436;6.544;2023-04-25T11:19:09;5.50;;;1.67;;
14116;SDS011;7137;51.436;6.544;2023-04-25T11:22:11;7.43;;;1.90;;
14116;SDS011;7137;51.436;6.544;2023-04-25T11:25:15;6.17;;;1.80;;
14116;SDS011;7137;51.436;6.544;2023-04-25T11:28:20;5.30;;;1.47;;
14116;SDS011;7137;51.436;6.544;2023-04-25T11:31:24;5.23;;;1.60;;
14116;SDS011;7137;51.436;6.544;2023-04-25T11:34:26;5.70;;;1.70;;
14116;SDS011;7137;51.436;6.544;2023-04-25T11:37:30;5.47;;;1.90;;
14116;SDS011;7137;51.436;6.544;2023-04-25T11:40:32;6.97;;;2.00;;
14116;SDS011;7137;51.436;6.544;2023-04-25T11:43:33;6.47;;;1.43;;
14116;SDS011;7137;51.436;6.544;2023-04-25T11:46:36;6.40;;;1.77;;
14116;SDS011;7137;51.436;6.544;2023-04-25T11:49:38;7.07;;;2.10;;
14116;SDS011;7137;51.436;6.544;2023-04-25T11:52:40;7.70;;;1.80;;
14116;SDS011;7137;51.436;6.544;2023-04-25T11:55:43;7.10;;;1.90;;
14116;SDS011;7137;51.436;6.544;2023-04-25T11:58:54;6.17;;;1.67;;
14116;SDS011;7137;51.436;6.544;2023-04-25T12:01:58;4.73;;;2.20;;
14116;SDS011;7137;51.436;6.544;2023-04-25T12:05:01;6.87;;;1.80;;
14116;SDS011;7137;51.436;6.544;2023-04-25T12:08:10;7.67;;;1.60;;
14116;SDS011;7137;51.436;6.544;2023-04-25T12:11:20;6.37;;;1.63;;
14116;SDS011;7137;51.436;6.544;2023-04-25T12:14:23;5.23;;;1.60;;
14116;SDS011;7137;51.436;6.544;2023-04-25T12:17:28;9.20;;;1.87;;
14116;SDS011;7137;51.436;6.544;2023-04-25T12:20:31;7.50;;;2.00;;
14116;SDS011;7137;51.436;6.544;2023-04-25T12:23:32;7.27;;;2.00;;
14116;SDS011;7137;51.436;6.544;2023-04-25T12:26:45;3.87;;;1.37;;
14116;SDS011;7137;51.436;6.544;2023-04-25T12:29:51;5.80;;;1.93;;
14116;SDS011;7137;51.436;6.544;2023-04-25T12:32:55;4.70;;;1.70;;
14116;SDS011;7137;51.436;6.544;2023-04-25T12:35:57;6.23;;;1.77;;
14116;SDS011;7137;51.436;6.544;2023-04-25T12:38:59;6.53;;;1.90;;
14116;SDS011;7137;51.436;6.544;2023-04-25T12:42:04;7.43;;;1.90;;
14116;SDS011;7137;51.436;6.544;2023-04-25T12:45:08;5.90;;;1.77;;
14116;SDS011;7137;51.436;6.544;2023-04-25T12:48:11;5.93;;;2.13;;
14116;SDS011;7137;51.436;6.544;2023-04-25T12:51:12;6.43;;;1.80;;
14116;SDS011;7137;51.436;6.544;2023-04-25T12:54:14;6.37;;;1.70;;
14116;SDS011;7137;51.436;6.544;2023-04-25T12:57:15;4.67;;;1.80;;
14116;SDS011;7137;51.436;6.544;2023-04-25T13:00:17;5.73;;;1.47;;
14116;SDS011;7137;51.436;6.544;2023-04-25T13:03:21;4.93;;;1.47;;
14116;SDS011;7137;51.436;6.544;2023-04-25T13:06:23;5.07;;;1.20;;
14116;SDS011;7137;51.436;6.544;2023-04-25T13:09:26;5.07;;;1.20;;
14116;SDS011;7137;51.436;6.544;2023-04-25T13:12:27;4.23;;;1.17;;
14116;SDS011;7137;51.436;6.544;2023-04-25T13:15:29;5.50;;;1.23;;
14116;SDS011;7137;51.436;6.544;2023-04-25T13:18:32;5.90;;;1.50;;
14116;SDS011;7137;51.436;6.544;2023-04-25T13:21:34;4.93;;;1.07;;
14116;SDS011;7137;51.436;6.544;2023-04-25T13:24:35;4.60;;;1.40;;
14116;SDS011;7137;51.436;6.544;2023-04-25T13:27:37;4.57;;;0.93;;
14116;SDS011;7137;51.436;6.544;2023-04-25T13:30:40;3.70;;;1.10;;
14116;SDS011;7137;51.436;6.544;2023-04-25T13:33:43;4.47;;;1.10;;
14116;SDS011;7137;51.436;6.544;2023-04-25T13:36:45;6.27;;;1.27;;
14116;SDS011;7137;51.436;6.544;2023-04-25T13:39:46;5.57;;;1.50;;
14116;SDS011;7137;51.436;6.544;2023-04-25T13:42:48;5.87;;;1.43;;
14116;SDS011;7137;51.436;6.544;2023-04-25T13:45:50;5.93;;;1.50;;
14116;SDS011;7137;51.436;6.544;2023-04-25T13:48:55;5.07;;;1.23;;
14116;SDS011;7137;51.436;6.544;2023-04-25T13:51:56;5.57;;;1.60;;
14116;SDS011;7137;51.436;6.544;2023-04-25T13:54:58;5.90;;;1.43;;
14116;SDS011;7137;51.436;6.544;2023-04-25T13:58:00;4.73;;;1.50;;
14116;SDS011;7137;51.436;6.544;2023-04-25T14:01:07;6.53;;;1.63;;
14116;SDS011;7137;51.436;6.544;2023-04-25T14:04:10;7.00;;;1.40;;
14116;SDS011;7137;51.436;6.544;2023-04-25T14:07:11;3.53;;;1.27;;
14116;SDS011;7137;51.436;6.544;2023-04-25T14:10:16;6.13;;;1.40;;
14116;SDS011;7137;51.436;6.544;2023-04-25T14:13:17;5.17;;;1.10;;
14116;SDS011;7137;51.436;6.544;2023-04-25T14:16:19;4.83;;;1.20;;
14116;SDS011;7137;51.436;6.544;2023-04-25T14:19:22;4.70;;;1.20;;
14116;SDS011;7137;51.436;6.544;2023-04-25T14:22:24;4.20;;;1.30;;
14116;SDS011;7137;51.436;6.544;2023-04-25T14:25:27;3.53;;;1.10;;
14116;SDS011;7137;51.436;6.544;2023-04-25T14:28:29;5.77;;;1.47;;
14116;SDS011;7137;51.436;6.544;2023-04-25T14:31:30;5.63;;;1.20;;
14116;SDS011;7137;51.436;6.544;2023-04-25T14:34:33;5.63;;;1.30;;
14116;SDS011;7137;51.436;6.544;2023-04-25T14:37:35;5.73;;;1.40;;
14116;SDS011;7137;51.436;6.544;2023-04-25T14:40:36;5.77;;;1.30;;
14116;SDS011;7137;51.436;6.544;2023-04-25T14:43:38;6.27;;;1.60;;
14116;SDS011;7137;51.436;6.544;2023-04-25T14:46:41;4.50;;;1.33;;
14116;SDS011;7137;51.436;6.544;2023-04-25T14:49:44;5.13;;;1.40;;
14116;SDS011;7137;51.436;6.544;2023-04-25T14:52:51;5.90;;;1.27;;
14116;SDS011;7137;51.436;6.544;2023-04-25T14:55:52;5.97;;;1.50;;
14116;SDS011;7137;51.436;6.544;2023-04-25T14:58:54;6.13;;;1.60;;
14116;SDS011;7137;51.436;6.544;2023-04-25T15:01:55;7.50;;;1.47;;
14116;SDS011;7137;51.436;6.544;2023-04-25T15:04:58;5.93;;;1.70;;
14116;SDS011;7137;51.436;6.544;2023-04-25T15:08:01;5.73;;;1.43;;
14116;SDS011;7137;51.436;6.544;2023-04-25T15:11:03;6.97;;;1.43;;
14116;SDS011;7137;51.436;6.544;2023-04-25T15:14:05;4.87;;;1.20;;
14116;SDS011;7137;51.436;6.544;2023-04-25T15:17:07;4.10;;;1.07;;
14116;SDS011;7137;51.436;6.544;2023-04-25T15:20:10;3.43;;;1.10;;
14116;SDS011;7137;51.436;6.544;2023-04-25T15:23:25;5.13;;;1.60;;
14116;SDS011;7137;51.436;6.544;2023-04-25T15:26:27;3.93;;;1.20;;
14116;SDS011;7137;51.436;6.544;2023-04-25T15:29:29;6.83;;;1.33;;
14116;SDS011;7137;51.436;6.544;2023-04-25T15:32:31;4.40;;;1.30;;
14116;SDS011;7137;51.436;6.544;2023-04-25T15:35:34;4.90;;;1.40;;
14116;SDS011;7137;51.436;6.544;2023-04-25T15:38:36;5.80;;;1.67;;
14116;SDS011;7137;51.436;6.544;2023-04-25T15:41:37;5.23;;;1.40;;
14116;SDS011;7137;51.436;6.544;2023-04-25T15:44:39;3.77;;;1.20;;
14116;SDS011;7137;51.436;6.544;2023-04-25T15:47:41;6.47;;;1.37;;
14116;SDS011;7137;51.436;6.544;2023-04-25T15:50:44;5.70;;;1.33;;
14116;SDS011;7137;51.436;6.544;2023-04-25T15:53:46;4.27;;;1.30;;
14116;SDS011;7137;51.436;6.544;2023-04-25T15:56:47;5.07;;;1.30;;
14116;SDS011;7137;51.436;6.544;2023-04-25T15:59:49;3.60;;;1.17;;
14116;SDS011;7137;51.436;6.544;2023-04-25T16:02:50;5.10;;;1.30;;
14116;SDS011;7137;51.436;6.544;2023-04-25T16:05:53;5.37;;;1.40;;
14116;SDS011;7137;51.436;6.544;2023-04-25T16:08:55;4.93;;;1.30;;
14116;SDS011;7137;51.436;6.544;2023-04-25T16:11:57;4.63;;;1.30;;
14116;SDS011;7137;51.436;6.544;2023-04-25T16:14:58;3.83;;;1.20;;
14116;SDS011;7137;51.436;6.544;2023-04-25T16:17:59;5.13;;;1.80;;
14116;SDS011;7137;51.436;6.544;2023-04-25T16:21:02;5.33;;;1.80;;
14116;SDS011;7137;51.436;6.544;2023-04-25T16:24:04;8.23;;;2.93;;
14116;SDS011;7137;51.436;6.544;2023-04-25T16:27:06;11.20;;;4.30;;
14116;SDS011;7137;51.436;6.544;2023-04-25T16:30:08;6.07;;;2.00;;
14116;SDS011;7137;51.436;6.544;2023-04-25T16:33:11;5.90;;;1.50;;
14116;SDS011;7137;51.436;6.544;2023-04-25T16:36:13;5.37;;;1.53;;
14116;SDS011;7137;51.436;6.544;2023-04-25T16:39:15;4.63;;;1.40;;
14116;SDS011;7137;51.436;6.544;2023-04-25T16:42:17;4.10;;;1.30;;
14116;SDS011;7137;51.436;6.544;2023-04-25T16:45:19;4.60;;;1.30;;
14116;SDS011;7137;51.436;6.544;2023-04-25T16:48:21;5.90;;;1.30;;
14116;SDS011;7137;51.436;6.544;2023-04-25T16:51:24;5.77;;;1.30;;
14116;SDS011;7137;51.436;6.544;2023-04-25T16:54:27;5.20;;;1.20;;
14116;SDS011;7137;51.436;6.544;2023-04-25T16:57:28;5.37;;;1.60;;
14116;SDS011;7137;51.436;6.544;2023-04-25T17:00:30;5.60;;;1.40;;
14116;SDS011;7137;51.436;6.544;2023-04-25T17:03:31;6.07;;;1.50;;
14116;SDS011;7137;51.436;6.544;2023-04-25T17:06:34;6.37;;;1.60;;
14116;SDS011;7137;51.436;6.544;2023-04-25T17:09:36;5.00;;;1.40;;
14116;SDS011;7137;51.436;6.544;2023-04-25T17:12:37;5.47;;;1.60;;
14116;SDS011;7137;51.436;6.544;2023-04-25T17:15:39;4.83;;;1.30;;
14116;SDS011;7137;51.436;6.544;2023-04-25T17:18:42;4.20;;;1.27;;
14116;SDS011;7137;51.436;6.544;2023-04-25T17:21:45;4.93;;;1.20;;
14116;SDS011;7137;51.436;6.544;2023-04-25T17:24:46;4.87;;;1.30;;
14116;SDS011;7137;51.436;6.544;2023-04-25T17:27:49;5.03;;;1.23;;
14116;SDS011;7137;51.436;6.544;2023-04-25T17:30:50;4.53;;;1.30;;
14116;SDS011;7137;51.436;6.544;2023-04-25T17:33:52;5.43;;;1.40;;
14116;SDS011;7137;51.436;6.544;2023-04-25T17:36:55;4.63;;;1.30;;
14116;SDS011;7137;51.436;6.544;2023-04-25T17:39:56;5.23;;;1.33;;
14116;SDS011;7137;51.436;6.544;2023-04-25T17:42:58;6.30;;;1.50;;
14116;SDS011;7137;51.436;6.544;2023-04-25T17:46:00;5.43;;;1.50;;
14116;SDS011;7137;51.436;6.544;2023-04-25T17:49:01;4.53;;;1.57;;
14116;SDS011;7137;51.436;6.544;2023-04-25T17:52:04;5.30;;;1.30;;
14116;SDS011;7137;51.436;6.544;2023-04-25T17:55:06;4.93;;;1.53;;
14116;SDS011;7137;51.436;6.544;2023-04-25T17:58:08;5.40;;;1.30;;
14116;SDS011;7137;51.436;6.544;2023-04-25T18:01:10;4.77;;;1.40;;
14116;SDS011;7137;51.436;6.544;2023-04-25T18:04:12;3.87;;;1.60;;
14116;SDS011;7137;51.436;6.544;2023-04-25T18:07:15;5.73;;;1.63;;
14116;SDS011;7137;51.436;6.544;2023-04-25T18:10:16;6.80;;;1.70;;
14116;SDS011;7137;51.436;6.544;2023-04-25T18:13:18;5.27;;;1.60;;
14116;SDS011;7137;51.436;6.544;2023-04-25T18:16:19;8.30;;;1.50;;
14116;SDS011;7137;51.436;6.544;2023-04-25T18:19:21;7.70;;;1.67;;
14116;SDS011;7137;51.436;6.544;2023-04-25T18:22:24;6.90;;;1.53;;
14116;SDS011;7137;51.436;6.544;2023-04-25T18:25:25;7.27;;;1.87;;
14116;SDS011;7137;51.436;6.544;2023-04-25T18:28:27;7.70;;;1.50;;